地図

経路データ

SID SEASON NUMBER BASIN SUBBASIN NAME ISO_TIME NATURE LAT LON WMO_WIND WMO_PRES WMO_AGENCY TRACK_TYPE DIST2LAND LANDFALL IFLAG USA_AGENCY USA_ATCF_ID USA_LAT USA_LON USA_RECORD USA_STATUS USA_WIND USA_PRES USA_SSHS USA_R34_NE USA_R34_SE USA_R34_SW USA_R34_NW USA_R50_NE USA_R50_SE USA_R50_SW USA_R50_NW USA_R64_NE USA_R64_SE USA_R64_SW USA_R64_NW USA_POCI USA_ROCI USA_RMW USA_EYE TOKYO_LAT TOKYO_LON TOKYO_GRADE TOKYO_WIND TOKYO_PRES TOKYO_R50_DIR TOKYO_R50_LONG TOKYO_R50_SHORT TOKYO_R30_DIR TOKYO_R30_LONG TOKYO_R30_SHORT TOKYO_LAND CMA_LAT CMA_LON CMA_CAT CMA_WIND CMA_PRES HKO_LAT HKO_LON HKO_CAT HKO_WIND HKO_PRES NEWDELHI_LAT NEWDELHI_LON NEWDELHI_GRADE NEWDELHI_WIND NEWDELHI_PRES NEWDELHI_CI NEWDELHI_DP NEWDELHI_POCI REUNION_LAT REUNION_LON REUNION_TYPE REUNION_WIND REUNION_PRES REUNION_TNUM REUNION_CI REUNION_RMW REUNION_R34_NE REUNION_R34_SE REUNION_R34_SW REUNION_R34_NW REUNION_R50_NE REUNION_R50_SE REUNION_R50_SW REUNION_R50_NW REUNION_R64_NE REUNION_R64_SE REUNION_R64_SW REUNION_R64_NW BOM_LAT BOM_LON BOM_TYPE BOM_WIND BOM_PRES BOM_TNUM BOM_CI BOM_RMW BOM_R34_NE BOM_R34_SE BOM_R34_SW BOM_R34_NW BOM_R50_NE BOM_R50_SE BOM_R50_SW BOM_R50_NW BOM_R64_NE BOM_R64_SE BOM_R64_SW BOM_R64_NW BOM_ROCI BOM_POCI BOM_EYE BOM_POS_METHOD BOM_PRES_METHOD NADI_LAT NADI_LON NADI_CAT NADI_WIND NADI_PRES WELLINGTON_LAT WELLINGTON_LON WELLINGTON_WIND WELLINGTON_PRES DS824_LAT DS824_LON DS824_STAGE DS824_WIND DS824_PRES TD9636_LAT TD9636_LON TD9636_STAGE TD9636_WIND TD9636_PRES TD9635_LAT TD9635_LON TD9635_WIND TD9635_PRES TD9635_ROCI NEUMANN_LAT NEUMANN_LON NEUMANN_CLASS NEUMANN_WIND NEUMANN_PRES MLC_LAT MLC_LON MLC_CLASS MLC_WIND MLC_PRES USA_GUST BOM_GUST BOM_GUST_PER REUNION_GUST REUNION_GUST_PER USA_SEAHGT USA_SEARAD_NE USA_SEARAD_SE USA_SEARAD_SW USA_SEARAD_NW STORM_SPEED STORM_DIR
1928199N19092 1928 34 NI BB NOT_NAMED 1928-07-17 00:00:00 TS 19.0000 92.0000 main 155 153 _________O____ -1 19.0000 92.0000 TC 30 3 293
1928199N19092 1928 34 NI BB NOT_NAMED 1928-07-17 03:00:00 TS 19.0667 91.8334 main 160 160 _________PO___ -1 19.1001 91.7501 TC 30 19.0000 92.0000 1 4 294
1928199N19092 1928 34 NI BB NOT_NAMED 1928-07-17 06:00:00 TS 19.1759 91.5900 main 168 168 _________OP___ -1 19.2000 91.5000 TC 30 19.1397 91.7249 1 5 295
1928199N19092 1928 34 NI BB NOT_NAMED 1928-07-17 09:00:00 TS 19.2842 91.3398 main 184 184 _________PP___ -1 19.3000 91.2500 TC 30 19.2633 91.4595 1 5 294
1928199N19092 1928 34 NI BB NOT_NAMED 1928-07-17 12:00:00 TS 19.3776 91.1072 main 195 195 _________OP___ -1 19.4000 91.0000 TC 30 19.3552 91.2144 1 5 291
1928199N19092 1928 34 NI BB NOT_NAMED 1928-07-17 15:00:00 TS 19.4500 90.8712 main 206 206 _________PO___ -1 19.5000 90.7425 TC 31 19.4000 91.0000 1 4 286
1928199N19092 1928 34 NI BB NOT_NAMED 1928-07-17 18:00:00 TS 19.4989 90.6591 main 222 222 _________OP___ -1 19.6000 90.5000 TC 32 19.3977 90.8183 1 4 279
1928199N19092 1928 34 NI BB NOT_NAMED 1928-07-17 21:00:00 TS 19.5068 90.4900 main 239 239 _________PP___ -1 19.6022 90.3440 TC 33 19.4114 90.6360 1 4 293
1928199N19092 1928 34 NI BB NOT_NAMED 1928-07-18 00:00:00 TS 19.6597 90.2554 main 235 186 _________OP___ -1 19.8000 90.1000 TC 34 19.5194 90.4109 1 9 316
1928199N19092 1928 34 NI BB NOT_NAMED 1928-07-18 03:00:00 TS 20.1301 89.8517 main 186 94 _________PO___ -1 20.4603 89.6033 TC 33 19.8000 90.1000 2 15 325
1928199N19092 1928 34 NI BB NOT_NAMED 1928-07-18 06:00:00 TS 20.8893 89.3486 main 80 0 _________OP___ -1 21.3000 89.0000 TC 32 20.4786 89.6973 2 19 329
1928199N19092 1928 34 NI BB NOT_NAMED 1928-07-18 09:00:00 TS 21.7140 88.8455 main 0 0 _________PP___ -1 22.1192 88.4956 TC 31 21.3087 89.1954 2 18 326
1928199N19092 1928 34 NI BB NOT_NAMED 1928-07-18 12:00:00 TS 22.4047 88.2476 main 0 0 _________OP___ -1 22.7000 87.9000 TC 30 22.1095 88.5952 2 16 309
1928199N19092 1928 34 NI BB NOT_NAMED 1928-07-18 15:00:00 TS 22.7388 87.4969 main 0 0 _________PO___ -1 22.7776 87.0937 TC 30 22.7000 87.9000 1 15 282
1928199N19092 1928 34 NI BB NOT_NAMED 1928-07-18 18:00:00 TS 22.7097 86.6348 main 0 0 _________OP___ -1 22.6000 86.2000 TC 30 22.8193 87.0696 1 16 264
1928199N19092 1928 34 NI BB NOT_NAMED 1928-07-18 21:00:00 TS 22.5782 85.7333 main 0 0 _________PP___ -1 22.4428 85.2970 TC 30 22.7136 86.1695 1 16 259
1928199N19092 1928 34 NI BB NOT_NAMED 1928-07-19 00:00:00 TS 22.4003 84.8928 main 0 0 _________OP___ -1 22.3000 84.5000 TC 30 22.5006 85.2855 1 14 258
1928199N19092 1928 34 NI BB NOT_NAMED 1928-07-19 03:00:00 TS 22.2847 84.2202 main 0 0 _________PO___ -1 22.2693 83.9403 TC 30 22.3000 84.5000 1 11 264
1928199N19092 1928 34 NI BB NOT_NAMED 1928-07-19 06:00:00 TS 22.2913 83.7071 main 0 0 _________OP___ -1 22.3000 83.5000 TC 30 22.2826 83.9141 1 9 272
1928199N19092 1928 34 NI BB NOT_NAMED 1928-07-19 09:00:00 TS 22.3222 83.2368 main 0 0 _________PP___ -1 22.3423 83.0425 TC 30 22.3021 83.4311 1 8 276
1928199N19092 1928 34 NI BB NOT_NAMED 1928-07-19 12:00:00 TS 22.3728 82.8038 main 0 0 _________OP___ -1 22.4000 82.6000 TC 30 22.3457 83.0075 1 8 277
1928199N19092 1928 34 NI BB NOT_NAMED 1928-07-19 15:00:00 TS 22.4249 82.3750 main 0 0 _________PO___ -1 22.4499 82.1500 TC 30 22.4000 82.6000 1 8 277
1928199N19092 1928 34 NI BB NOT_NAMED 1928-07-19 18:00:00 TS 22.4735 81.9707 main 0 0 _________OP___ -1 22.5000 81.7000 TC 30 22.4537 82.1738 1 8 277
1928199N19092 1928 34 NI BB NOT_NAMED 1928-07-19 21:00:00 TS 22.5229 81.5364 main 0 0 _________PP___ -1 22.5503 81.2501 TC 30 22.5046 81.7273 1 8 277
1928199N19092 1928 34 NI BB NOT_NAMED 1928-07-20 00:00:00 TS 22.5688 81.1114 main 0 0 _________OP___ -1 22.6000 80.8000 TC 30 22.5533 81.2671 1 7 276
1928199N19092 1928 34 NI BB NOT_NAMED 1928-07-20 03:00:00 NR 22.6000 80.8000 main 0 __________O___ -1 TC 22.6000 80.8000 1 6 276

IBTrACS Databaseについて

本データベースは、米国NOAAが公開する1842年以降の世界の熱帯低気圧のベストトラックデータアーカイブInternational Best Track Archive for Climate Stewardship (IBTrACS)を、ウェブで閲覧しやすい形式に変換したものです。

最終更新日:2021-10-25